createdAt,value
2023-01-07T00:00:38.712Z,4.73
2023-01-07T00:01:38.600Z,4.75
2023-01-07T00:02:38.601Z,4.76
2023-01-07T00:03:38.608Z,4.75
2023-01-07T00:04:38.587Z,4.80
2023-01-07T00:05:38.567Z,4.86
2023-01-07T00:06:38.530Z,4.91
2023-01-07T00:07:38.560Z,4.95
2023-01-07T00:08:38.508Z,4.99
2023-01-07T00:09:38.499Z,5.02
2023-01-07T00:10:38.539Z,5.09
2023-01-07T00:11:38.511Z,5.12
2023-01-07T00:12:38.488Z,5.14
2023-01-07T00:13:38.476Z,5.20
2023-01-07T00:14:38.442Z,5.20
2023-01-07T00:15:38.503Z,5.22
2023-01-07T00:16:38.420Z,5.23
2023-01-07T00:17:38.406Z,5.30
2023-01-07T00:18:38.393Z,5.34
2023-01-07T00:19:38.397Z,5.35
2023-01-07T00:20:38.419Z,5.38
2023-01-07T00:21:38.371Z,5.38
2023-01-07T00:22:38.356Z,5.37
2023-01-07T00:23:38.346Z,5.40
2023-01-07T00:24:38.348Z,5.43
2023-01-07T00:25:38.338Z,5.43
2023-01-07T00:26:38.339Z,5.45
2023-01-07T00:27:38.304Z,5.50
2023-01-07T00:28:38.304Z,5.57
2023-01-07T00:29:38.273Z,5.63
2023-01-07T00:30:38.298Z,5.64
2023-01-07T00:31:38.344Z,5.64
2023-01-07T00:32:38.246Z,5.64
2023-01-07T00:33:38.226Z,5.63
2023-01-07T00:34:38.227Z,5.59
2023-01-07T00:35:38.237Z,5.59
2023-01-07T00:36:38.194Z,5.57
2023-01-07T00:37:38.177Z,5.57
2023-01-07T00:38:38.173Z,5.60
2023-01-07T00:39:38.581Z,5.60
2023-01-07T00:40:38.169Z,5.60
2023-01-07T00:41:38.156Z,5.60
2023-01-07T00:42:38.165Z,5.60
2023-01-07T00:43:38.134Z,5.63
2023-01-07T00:44:38.187Z,5.66
2023-01-07T00:45:38.117Z,5.67
2023-01-07T00:46:38.137Z,5.74
2023-01-07T00:47:38.078Z,5.77
2023-01-07T00:48:38.094Z,5.77
2023-01-07T00:49:38.060Z,5.81
2023-01-07T00:50:38.063Z,5.81
2023-01-07T00:51:38.043Z,5.82
2023-01-07T00:52:38.047Z,5.81
2023-01-07T00:53:38.005Z,5.85
2023-01-07T00:54:38.028Z,5.85
2023-01-07T00:55:38.022Z,5.88
2023-01-07T00:56:37.983Z,5.89
2023-01-07T00:57:37.962Z,5.91
2023-01-07T00:58:44.511Z,5.92
2023-01-07T00:59:37.940Z,5.92
2023-01-07T01:00:37.980Z,5.92
2023-01-07T01:01:38.027Z,5.92
2023-01-07T01:02:37.935Z,5.91
2023-01-07T01:03:37.898Z,5.92
2023-01-07T01:04:37.881Z,5.93
2023-01-07T01:05:37.897Z,5.92
2023-01-07T01:06:37.868Z,5.93
2023-01-07T01:07:37.846Z,5.92
2023-01-07T01:08:37.834Z,5.93
2023-01-07T01:09:37.833Z,5.93
2023-01-07T01:10:37.826Z,5.96
2023-01-07T01:11:37.814Z,5.98
2023-01-07T01:12:37.789Z,5.96
2023-01-07T01:13:37.788Z,5.98
2023-01-07T01:14:37.773Z,6.00
2023-01-07T01:15:37.770Z,6.03
2023-01-07T01:16:37.828Z,6.03
2023-01-07T01:17:37.743Z,6.01
2023-01-07T01:18:37.737Z,6.01
2023-01-07T01:19:37.721Z,6.03
2023-01-07T01:20:37.708Z,6.04
2023-01-07T01:21:37.774Z,6.04
2023-01-07T01:22:37.676Z,6.03
2023-01-07T01:23:37.666Z,6.01
2023-01-07T01:24:37.683Z,6.01
2023-01-07T01:25:37.645Z,6.03
2023-01-07T01:26:37.656Z,6.07
2023-01-07T01:27:37.627Z,6.11
2023-01-07T01:28:37.614Z,6.14
2023-01-07T01:29:37.597Z,6.16
2023-01-07T01:30:37.601Z,6.18
2023-01-07T01:31:37.645Z,6.19
2023-01-07T01:32:37.572Z,6.19
2023-01-07T01:33:37.553Z,6.21
2023-01-07T01:34:37.538Z,6.21
2023-01-07T01:35:37.538Z,6.22
2023-01-07T01:36:37.607Z,6.28
2023-01-07T01:37:37.519Z,6.29
2023-01-07T01:38:37.508Z,6.33
2023-01-07T01:39:37.505Z,6.33
2023-01-07T01:40:37.487Z,6.41
2023-01-07T01:41:37.497Z,6.46
2023-01-07T01:42:37.459Z,6.51
2023-01-07T01:43:37.449Z,6.58
2023-01-07T01:44:37.450Z,6.62
2023-01-07T01:45:37.432Z,6.66
2023-01-07T01:46:37.449Z,6.69
2023-01-07T01:47:37.405Z,6.73
2023-01-07T01:48:37.397Z,6.77
2023-01-07T01:49:37.384Z,6.80
2023-01-07T01:50:37.371Z,6.81
2023-01-07T01:51:37.378Z,6.84
2023-01-07T01:52:37.350Z,6.86
2023-01-07T01:53:37.343Z,6.91
2023-01-07T01:54:37.331Z,6.94
2023-01-07T01:55:37.316Z,6.98
2023-01-07T01:56:37.324Z,6.99
2023-01-07T01:57:37.298Z,6.99
2023-01-07T01:58:37.288Z,7.05
2023-01-07T01:59:37.268Z,7.08
2023-01-07T02:00:37.324Z,7.08
2023-01-07T02:01:37.535Z,7.12
2023-01-07T02:02:37.320Z,7.12
2023-01-07T02:03:37.224Z,7.15
2023-01-07T02:04:37.215Z,7.19
2023-01-07T02:05:39.822Z,7.19
2023-01-07T02:06:37.211Z,7.24
2023-01-07T02:07:37.184Z,7.26
2023-01-07T02:08:37.173Z,7.31
2023-01-07T02:09:37.162Z,7.32
2023-01-07T02:10:37.144Z,7.32
2023-01-07T02:11:37.170Z,7.32
2023-01-07T02:12:37.141Z,7.32
2023-01-07T02:13:37.137Z,7.34
2023-01-07T02:14:37.116Z,7.35
2023-01-07T02:15:37.109Z,7.37
2023-01-07T02:16:37.197Z,7.37
2023-01-07T02:17:37.072Z,7.38
2023-01-07T02:18:37.058Z,7.37
2023-01-07T02:19:37.058Z,7.38
2023-01-07T02:20:37.033Z,7.47
2023-01-07T02:21:37.049Z,7.49
2023-01-07T02:22:37.015Z,7.49
2023-01-07T02:23:37.008Z,7.53
2023-01-07T02:24:36.991Z,7.58
2023-01-07T02:25:36.980Z,7.59
2023-01-07T02:26:36.993Z,7.59
2023-01-07T02:27:36.967Z,7.58
2023-01-07T02:28:36.950Z,7.53
2023-01-07T02:29:36.935Z,7.49
2023-01-07T02:30:36.938Z,7.45
2023-01-07T02:31:36.994Z,7.44
2023-01-07T02:32:36.902Z,7.42
2023-01-07T02:33:36.892Z,7.44
2023-01-07T02:34:36.888Z,7.47
2023-01-07T02:35:36.878Z,7.52
2023-01-07T02:36:36.877Z,7.53
2023-01-07T02:37:36.857Z,7.52
2023-01-07T02:38:36.845Z,7.55
2023-01-07T02:39:36.825Z,7.53
2023-01-07T02:40:36.820Z,7.55
2023-01-07T02:41:36.821Z,7.53
2023-01-07T02:42:36.802Z,7.55
2023-01-07T02:43:36.787Z,7.55
2023-01-07T02:44:36.768Z,7.59
2023-01-07T02:45:36.821Z,7.74
2023-01-07T02:46:36.772Z,7.75
2023-01-07T02:47:36.749Z,7.72
2023-01-07T02:48:36.732Z,7.69
2023-01-07T02:49:36.730Z,7.67
2023-01-07T02:50:36.719Z,7.66
2023-01-07T02:51:36.714Z,7.67
2023-01-07T02:52:36.686Z,7.69
2023-01-07T02:53:36.675Z,7.71
2023-01-07T02:54:36.657Z,7.77
2023-01-07T02:55:36.647Z,7.79
2023-01-07T02:56:36.656Z,7.79
2023-01-07T02:57:36.642Z,7.78
2023-01-07T02:58:36.619Z,7.77
2023-01-07T02:59:36.618Z,7.78
2023-01-07T03:00:36.673Z,7.84
2023-01-07T03:01:36.738Z,7.84
2023-01-07T03:02:36.571Z,7.82
2023-01-07T03:03:36.565Z,7.78
2023-01-07T03:04:36.549Z,7.75
2023-01-07T03:05:36.536Z,7.78
2023-01-07T03:06:36.553Z,7.82
2023-01-07T03:07:36.516Z,7.85
2023-01-07T03:08:36.527Z,7.89
2023-01-07T03:09:36.503Z,7.89
2023-01-07T03:10:36.491Z,7.92
2023-01-07T03:11:36.488Z,7.92
2023-01-07T03:12:36.478Z,7.96
2023-01-07T03:13:36.465Z,7.96
2023-01-07T03:14:36.447Z,7.93
2023-01-07T03:15:36.443Z,7.90
2023-01-07T03:16:36.538Z,7.92
2023-01-07T03:17:36.406Z,7.93
2023-01-07T03:18:36.386Z,7.93
2023-01-07T03:19:36.395Z,7.93
2023-01-07T03:20:36.372Z,7.93
2023-01-07T03:21:36.379Z,7.90
2023-01-07T03:22:36.353Z,7.93
2023-01-07T03:23:36.341Z,7.97
2023-01-07T03:24:36.323Z,8.00
2023-01-07T03:25:36.313Z,8.03
2023-01-07T03:26:36.327Z,8.04
2023-01-07T03:27:36.298Z,8.10
2023-01-07T03:28:36.287Z,8.12
2023-01-07T03:29:36.275Z,8.17
2023-01-07T03:30:36.261Z,8.30
2023-01-07T03:31:36.321Z,8.39
2023-01-07T03:32:36.250Z,8.42
2023-01-07T03:33:36.238Z,8.42
2023-01-07T03:34:36.215Z,8.40
2023-01-07T03:35:36.207Z,8.39
2023-01-07T03:36:36.220Z,8.39
2023-01-07T03:37:36.186Z,8.36
2023-01-07T03:38:36.174Z,8.36
2023-01-07T03:39:36.171Z,8.35
2023-01-07T03:40:36.149Z,8.33
2023-01-07T03:41:36.155Z,8.35
2023-01-07T03:42:36.129Z,8.32
2023-01-07T03:43:36.111Z,8.30
2023-01-07T03:44:36.110Z,8.29
2023-01-07T03:45:36.161Z,8.32
2023-01-07T03:46:36.103Z,8.35
2023-01-07T03:47:36.070Z,8.40
2023-01-07T03:48:36.079Z,8.44
2023-01-07T03:49:36.912Z,8.39
2023-01-07T03:50:36.055Z,8.40
2023-01-07T03:51:36.058Z,8.39
2023-01-07T03:52:36.025Z,8.39
2023-01-07T03:53:36.005Z,8.36
2023-01-07T03:54:36.021Z,8.39
2023-01-07T03:55:36.014Z,8.39
2023-01-07T03:56:35.978Z,8.39
2023-01-07T03:57:35.973Z,8.39
2023-01-07T03:58:35.952Z,8.40
2023-01-07T03:59:35.960Z,8.40
2023-01-07T04:00:35.926Z,8.44
2023-01-07T04:01:36.096Z,8.48
2023-01-07T04:02:35.922Z,8.50
2023-01-07T04:03:35.898Z,8.50
2023-01-07T04:04:36.002Z,8.50
2023-01-07T04:05:35.872Z,8.57
2023-01-07T04:06:35.872Z,8.58
2023-01-07T04:07:35.882Z,8.62
2023-01-07T04:08:35.839Z,8.63
2023-01-07T04:09:35.832Z,8.65
2023-01-07T04:10:35.832Z,8.65
2023-01-07T04:11:35.801Z,8.63
2023-01-07T04:12:35.805Z,8.63
2023-01-07T04:13:35.791Z,8.65
2023-01-07T04:14:35.781Z,8.66
2023-01-07T04:15:35.777Z,8.71
2023-01-07T04:16:35.785Z,8.73
2023-01-07T04:17:35.773Z,8.72
2023-01-07T04:18:35.755Z,8.72
2023-01-07T04:19:35.715Z,8.73
2023-01-07T04:20:35.726Z,8.73
2023-01-07T04:21:35.694Z,8.73
2023-01-07T04:22:35.700Z,8.72
2023-01-07T04:23:35.676Z,8.73
2023-01-07T04:24:35.652Z,8.73
2023-01-07T04:25:35.645Z,8.75
2023-01-07T04:26:35.649Z,8.71
2023-01-07T04:27:35.696Z,8.69
2023-01-07T04:28:35.613Z,8.66
2023-01-07T04:29:35.601Z,8.66
2023-01-07T04:30:35.656Z,8.68
2023-01-07T04:31:35.597Z,8.71
2023-01-07T04:32:35.578Z,8.71
2023-01-07T04:33:35.555Z,8.72
2023-01-07T04:34:35.546Z,8.73
2023-01-07T04:35:35.537Z,8.79
2023-01-07T04:36:35.563Z,8.83
2023-01-07T04:37:35.725Z,8.81
2023-01-07T04:38:35.521Z,8.81
2023-01-07T04:39:35.546Z,8.78
2023-01-07T04:40:35.500Z,8.76
2023-01-07T04:41:35.514Z,8.75
2023-01-07T04:42:35.519Z,8.75
2023-01-07T04:43:35.450Z,8.83
2023-01-07T04:44:35.437Z,8.84
2023-01-07T04:45:35.429Z,8.86
2023-01-07T04:46:35.444Z,8.87
2023-01-07T04:47:36.001Z,8.88
2023-01-07T04:48:35.402Z,8.88
2023-01-07T04:49:35.385Z,8.90
2023-01-07T04:50:35.369Z,8.91
2023-01-07T04:51:35.381Z,8.90
2023-01-07T04:52:35.365Z,8.87
2023-01-07T04:53:35.349Z,8.94
2023-01-07T04:54:35.324Z,8.96
2023-01-07T04:55:35.324Z,8.96
2023-01-07T04:56:35.304Z,8.94
2023-01-07T04:57:35.647Z,8.97
2023-01-07T04:58:35.287Z,9.04
2023-01-07T04:59:35.272Z,9.09
2023-01-07T05:00:35.264Z,9.12
2023-01-07T05:01:35.412Z,9.12
2023-01-07T05:02:35.248Z,9.10
2023-01-07T05:03:35.259Z,9.12
2023-01-07T05:04:35.279Z,9.09
2023-01-07T05:05:35.206Z,9.15
2023-01-07T05:06:35.191Z,9.27
2023-01-07T05:07:35.198Z,9.32
2023-01-07T05:08:35.179Z,9.34
2023-01-07T05:09:35.166Z,9.30
2023-01-07T05:10:35.170Z,9.32
2023-01-07T05:11:35.133Z,9.31
2023-01-07T05:12:35.154Z,9.43
2023-01-07T05:13:35.127Z,9.49
2023-01-07T05:14:35.112Z,9.53
2023-01-07T05:15:35.099Z,9.56
2023-01-07T05:16:35.151Z,9.50
2023-01-07T05:17:35.114Z,9.42
2023-01-07T05:18:35.073Z,9.39
2023-01-07T05:19:35.057Z,9.39
2023-01-07T05:20:35.043Z,9.32
2023-01-07T05:21:35.037Z,9.31
2023-01-07T05:22:35.039Z,9.31
2023-01-07T05:23:35.014Z,9.34
2023-01-07T05:24:34.997Z,9.56
2023-01-07T05:25:34.991Z,9.57
2023-01-07T05:26:34.975Z,9.57
2023-01-07T05:27:34.982Z,9.58
2023-01-07T05:28:34.965Z,9.53
2023-01-07T05:29:34.941Z,9.52
2023-01-07T05:30:34.948Z,9.50
2023-01-07T05:31:34.925Z,9.50
2023-01-07T05:32:34.935Z,9.50
2023-01-07T05:33:34.902Z,9.49
2023-01-07T05:34:34.887Z,9.46
2023-01-07T05:35:34.888Z,9.48
2023-01-07T05:36:34.877Z,9.48
2023-01-07T05:37:34.872Z,9.48
2023-01-07T05:38:34.851Z,9.48
2023-01-07T05:39:34.863Z,9.45
2023-01-07T05:40:34.826Z,9.43
2023-01-07T05:41:34.826Z,9.42
2023-01-07T05:42:34.831Z,9.39
2023-01-07T05:43:34.787Z,9.40
2023-01-07T05:44:34.784Z,9.40
2023-01-07T05:45:34.782Z,9.43
2023-01-07T05:46:34.824Z,9.43
2023-01-07T05:47:34.758Z,9.43
2023-01-07T05:48:34.739Z,9.45
2023-01-07T05:49:34.732Z,9.46
2023-01-07T05:50:34.715Z,9.56
2023-01-07T05:51:34.709Z,9.58
2023-01-07T05:52:34.700Z,9.61
2023-01-07T05:53:34.690Z,9.63
2023-01-07T05:54:34.671Z,9.61
2023-01-07T05:55:34.653Z,9.63
2023-01-07T05:56:34.654Z,9.63
2023-01-07T05:57:34.656Z,9.60
2023-01-07T05:58:34.621Z,9.61
2023-01-07T05:59:34.623Z,9.64
2023-01-07T06:00:34.606Z,9.66
2023-01-07T06:01:34.599Z,9.66
2023-01-07T06:02:34.601Z,9.66
2023-01-07T06:03:34.690Z,9.66
2023-01-07T06:04:34.602Z,9.64
2023-01-07T06:05:34.563Z,9.64
2023-01-07T06:06:34.543Z,9.63
2023-01-07T06:07:34.550Z,9.64
2023-01-07T06:08:34.518Z,9.66
2023-01-07T06:09:34.510Z,9.66
2023-01-07T06:10:34.492Z,9.67
2023-01-07T06:11:34.479Z,9.68
2023-01-07T06:12:34.493Z,9.66
2023-01-07T06:13:34.465Z,9.71
2023-01-07T06:14:34.451Z,9.78
2023-01-07T06:15:34.497Z,9.78
2023-01-07T06:16:34.428Z,9.78
2023-01-07T06:17:34.436Z,9.78
2023-01-07T06:18:34.406Z,9.79
2023-01-07T06:19:34.396Z,9.79
2023-01-07T06:20:34.398Z,9.79
2023-01-07T06:21:34.379Z,9.79
2023-01-07T06:22:34.383Z,9.78
2023-01-07T06:23:34.352Z,9.73
2023-01-07T06:24:34.365Z,9.73
2023-01-07T06:25:34.332Z,9.73
2023-01-07T06:26:34.328Z,9.73
2023-01-07T06:27:34.336Z,9.73
2023-01-07T06:28:34.310Z,9.70
2023-01-07T06:29:34.279Z,9.68
2023-01-07T06:30:34.278Z,9.67
2023-01-07T06:31:34.378Z,9.68
2023-01-07T06:32:34.271Z,9.67
2023-01-07T06:33:34.249Z,9.68
2023-01-07T06:34:34.233Z,9.67
2023-01-07T06:35:34.224Z,9.70
2023-01-07T06:36:34.212Z,9.71
2023-01-07T06:37:34.237Z,9.73
2023-01-07T06:38:34.188Z,9.73
2023-01-07T06:39:34.174Z,9.73
2023-01-07T06:40:34.177Z,9.70
2023-01-07T06:41:34.154Z,9.68
2023-01-07T06:42:34.146Z,9.67
2023-01-07T06:43:34.155Z,9.67
2023-01-07T06:44:34.134Z,9.68
2023-01-07T06:45:34.117Z,9.73
2023-01-07T06:46:34.134Z,9.76
2023-01-07T06:47:34.118Z,9.78
2023-01-07T06:48:34.097Z,9.82
2023-01-07T06:49:34.063Z,9.83
2023-01-07T06:50:34.052Z,9.82
2023-01-07T06:51:34.054Z,9.82
2023-01-07T06:52:34.039Z,9.83
2023-01-07T06:53:34.039Z,9.86
2023-01-07T06:54:34.017Z,9.86
2023-01-07T06:55:33.997Z,9.85
2023-01-07T06:56:33.987Z,9.85
2023-01-07T06:57:33.975Z,9.85
2023-01-07T06:58:33.982Z,9.86
2023-01-07T06:59:40.522Z,9.85
2023-01-07T07:00:33.945Z,9.83
2023-01-07T07:01:34.086Z,9.83
2023-01-07T07:02:34.105Z,9.86
2023-01-07T07:03:33.924Z,9.89
2023-01-07T07:04:33.917Z,9.89
2023-01-07T07:05:33.894Z,9.93
2023-01-07T07:06:33.895Z,9.88
2023-01-07T07:07:33.872Z,9.85
2023-01-07T07:08:33.872Z,9.83
2023-01-07T07:09:33.844Z,9.85
2023-01-07T07:10:33.843Z,9.86
2023-01-07T07:11:33.842Z,9.89
2023-01-07T07:12:33.816Z,9.89
2023-01-07T07:13:33.828Z,9.91
2023-01-07T07:14:33.798Z,9.88
2023-01-07T07:15:33.782Z,9.86
2023-01-07T07:16:33.788Z,9.85
2023-01-07T07:17:33.763Z,10.00
2023-01-07T07:18:33.758Z,10.04
2023-01-07T07:19:33.777Z,10.04
2023-01-07T07:20:33.723Z,10.04
2023-01-07T07:21:33.707Z,9.99
2023-01-07T07:22:33.715Z,9.99
2023-01-07T07:23:33.719Z,9.96
2023-01-07T07:24:33.675Z,9.89
2023-01-07T07:25:33.663Z,9.86
2023-01-07T07:26:33.665Z,9.88
2023-01-07T07:27:33.651Z,9.89
2023-01-07T07:28:33.651Z,9.86
2023-01-07T07:29:33.629Z,9.83
2023-01-07T07:30:45.898Z,9.81
2023-01-07T07:31:33.629Z,9.83
2023-01-07T07:32:33.620Z,9.85
2023-01-07T07:33:33.604Z,9.85
2023-01-07T07:34:35.758Z,9.86
2023-01-07T07:35:33.565Z,9.86
2023-01-07T07:36:33.551Z,9.86
2023-01-07T07:37:33.532Z,9.91
2023-01-07T07:38:33.541Z,9.91
2023-01-07T07:39:33.534Z,9.93
2023-01-07T07:40:33.504Z,9.91
2023-01-07T07:41:33.495Z,9.89
2023-01-07T07:43:09.377Z,9.89
2023-01-07T07:43:33.488Z,9.86
2023-01-07T07:44:33.480Z,9.86
2023-01-07T07:45:33.439Z,9.83
2023-01-07T07:46:33.501Z,9.85
2023-01-07T07:47:33.418Z,9.86
2023-01-07T07:48:33.432Z,9.88
2023-01-07T07:49:33.399Z,9.88
2023-01-07T07:50:33.386Z,9.88
2023-01-07T07:51:33.373Z,9.85
2023-01-07T07:52:33.373Z,9.83
2023-01-07T07:53:33.414Z,9.85
2023-01-07T07:54:33.379Z,9.86
2023-01-07T07:55:33.327Z,9.85
2023-01-07T07:56:33.328Z,9.83
2023-01-07T07:57:33.324Z,9.83
2023-01-07T07:58:33.317Z,9.83
2023-01-07T07:59:33.311Z,9.82
2023-01-07T08:00:33.272Z,9.85
2023-01-07T08:01:35.279Z,9.85
2023-01-07T08:02:33.250Z,9.85
2023-01-07T08:03:33.438Z,9.86
2023-01-07T08:04:33.220Z,9.86
2023-01-07T08:05:33.238Z,9.88
2023-01-07T08:06:33.216Z,9.88
2023-01-07T08:07:34.247Z,9.86
2023-01-07T08:08:33.184Z,9.86
2023-01-07T08:09:33.218Z,9.89
2023-01-07T08:10:33.166Z,9.89
2023-01-07T08:11:33.164Z,9.89
2023-01-07T08:12:33.150Z,9.89
2023-01-07T08:13:33.143Z,9.94
2023-01-07T08:14:33.117Z,9.97
2023-01-07T08:15:33.109Z,9.99
2023-01-07T08:16:33.180Z,10.01
2023-01-07T08:17:33.087Z,10.00
2023-01-07T08:18:33.102Z,10.00
2023-01-07T08:19:33.056Z,10.00
2023-01-07T08:20:33.062Z,9.99
2023-01-07T08:21:33.062Z,9.99
2023-01-07T08:22:33.022Z,10.01
2023-01-07T08:23:33.031Z,10.03
2023-01-07T08:24:32.991Z,10.01
2023-01-07T08:25:32.995Z,9.99
2023-01-07T08:26:32.977Z,9.99
2023-01-07T08:27:32.967Z,10.00
2023-01-07T08:28:32.981Z,10.00
2023-01-07T08:29:32.944Z,10.00
2023-01-07T08:30:32.935Z,10.00
2023-01-07T08:31:32.958Z,10.03
2023-01-07T08:32:32.923Z,10.04
2023-01-07T08:33:32.915Z,10.03
2023-01-07T08:34:32.890Z,10.03
2023-01-07T08:35:32.879Z,10.04
2023-01-07T08:36:32.868Z,10.04
2023-01-07T08:37:32.887Z,10.06
2023-01-07T08:38:32.855Z,10.04
2023-01-07T08:39:32.834Z,10.07
2023-01-07T08:40:32.827Z,10.04
2023-01-07T08:41:32.819Z,10.07
2023-01-07T08:42:32.793Z,10.07
2023-01-07T08:43:32.805Z,10.10
2023-01-07T08:44:32.771Z,10.14
2023-01-07T08:45:32.790Z,10.14
2023-01-07T08:46:32.797Z,10.15
2023-01-07T08:47:32.756Z,10.17
2023-01-07T08:48:32.743Z,10.18
2023-01-07T08:49:32.749Z,10.18
2023-01-07T08:50:32.698Z,10.21
2023-01-07T08:51:32.717Z,10.22
2023-01-07T08:52:32.681Z,10.22
2023-01-07T08:53:32.693Z,10.24
2023-01-07T08:54:32.664Z,10.26
2023-01-07T08:55:32.662Z,10.26
2023-01-07T08:56:32.628Z,10.25
2023-01-07T08:57:32.618Z,10.24
2023-01-07T08:58:32.633Z,10.25
2023-01-07T08:59:32.601Z,10.25
2023-01-07T09:00:32.618Z,10.25
2023-01-07T09:01:32.756Z,10.26
2023-01-07T09:02:32.589Z,10.28
2023-01-07T09:03:32.567Z,10.28
2023-01-07T09:04:32.576Z,10.33
2023-01-07T09:05:35.112Z,10.36
2023-01-07T09:06:32.522Z,10.34
2023-01-07T09:07:32.513Z,10.33
2023-01-07T09:08:32.517Z,10.32
2023-01-07T09:09:32.507Z,10.30
2023-01-07T09:10:32.473Z,10.30
2023-01-07T09:11:32.462Z,10.30
2023-01-07T09:12:32.476Z,10.32
2023-01-07T09:13:32.456Z,10.32
2023-01-07T09:14:32.426Z,10.28
2023-01-07T09:15:32.426Z,10.26
2023-01-07T09:16:32.456Z,10.26
2023-01-07T09:17:32.395Z,10.25
2023-01-07T09:18:32.398Z,10.24
2023-01-07T09:19:32.391Z,10.22
2023-01-07T09:20:32.358Z,10.22
2023-01-07T09:21:32.347Z,10.22
2023-01-07T09:22:32.350Z,10.21
2023-01-07T09:23:32.351Z,10.24
2023-01-07T09:24:32.332Z,10.25
2023-01-07T09:25:32.306Z,10.25
2023-01-07T09:26:32.306Z,10.25
2023-01-07T09:27:32.296Z,10.28
2023-01-07T09:28:32.287Z,10.30
2023-01-07T09:29:32.273Z,10.30
2023-01-07T09:30:32.263Z,10.32
2023-01-07T09:31:32.355Z,10.32
2023-01-07T09:32:32.235Z,10.33
2023-01-07T09:33:32.228Z,10.36
2023-01-07T09:34:32.221Z,10.36
2023-01-07T09:35:32.209Z,10.37
2023-01-07T09:36:32.189Z,10.39
2023-01-07T09:37:32.180Z,10.40
2023-01-07T09:38:32.187Z,10.44
2023-01-07T09:39:32.156Z,10.47
2023-01-07T09:40:32.148Z,10.51
2023-01-07T09:41:32.131Z,10.55
2023-01-07T09:42:33.887Z,10.55
2023-01-07T09:44:00.127Z,10.53
2023-01-07T09:44:32.112Z,10.53
2023-01-07T09:45:32.141Z,10.55
2023-01-07T09:46:32.067Z,10.56
2023-01-07T09:47:32.063Z,10.58
2023-01-07T09:48:32.145Z,10.58
2023-01-07T09:49:32.038Z,10.58
2023-01-07T09:50:32.025Z,10.59
2023-01-07T09:51:32.019Z,10.59
2023-01-07T09:52:32.005Z,10.59
2023-01-07T09:53:32.032Z,10.58
2023-01-07T09:54:31.982Z,10.59
2023-01-07T09:55:31.983Z,10.58
2023-01-07T09:56:31.954Z,10.59
2023-01-07T09:57:31.946Z,10.60
2023-01-07T09:58:31.957Z,10.59
2023-01-07T09:59:31.927Z,10.58
2023-01-07T10:00:31.940Z,10.53
2023-01-07T10:01:31.934Z,10.53
2023-01-07T10:02:31.954Z,10.51
2023-01-07T10:03:31.940Z,10.52
2023-01-07T10:04:31.867Z,10.51
2023-01-07T10:05:31.862Z,10.47
2023-01-07T10:06:43.112Z,10.47
2023-01-07T10:07:31.848Z,10.47
2023-01-07T10:08:32.526Z,10.52
2023-01-07T10:09:31.839Z,10.52
2023-01-07T10:10:31.810Z,10.52
2023-01-07T10:11:31.789Z,10.47
2023-01-07T10:12:31.791Z,10.46
2023-01-07T10:13:31.798Z,10.46
2023-01-07T10:14:31.752Z,10.44
2023-01-07T10:15:31.751Z,10.44
2023-01-07T10:16:31.936Z,10.44
2023-01-07T10:17:31.724Z,10.43
2023-01-07T10:18:31.725Z,10.42
2023-01-07T10:19:31.699Z,10.42
2023-01-07T10:20:31.690Z,10.37
2023-01-07T10:21:31.676Z,10.36
2023-01-07T10:22:31.664Z,10.37
2023-01-07T10:23:31.683Z,10.37
2023-01-07T10:24:31.651Z,10.36
2023-01-07T10:25:31.632Z,10.36
2023-01-07T10:26:31.644Z,10.36
2023-01-07T10:27:31.611Z,10.34
2023-01-07T10:28:31.616Z,10.33
2023-01-07T10:29:31.603Z,10.32
2023-01-07T10:30:31.575Z,10.28
2023-01-07T10:31:31.581Z,10.30
2023-01-07T10:32:31.566Z,10.32
2023-01-07T10:33:31.560Z,10.32
2023-01-07T10:34:31.525Z,10.32
2023-01-07T10:35:31.522Z,10.30
2023-01-07T10:36:31.511Z,10.30
2023-01-07T10:37:31.498Z,10.26
2023-01-07T10:38:31.505Z,10.26
2023-01-07T10:39:31.471Z,10.30
2023-01-07T10:40:31.469Z,10.30
2023-01-07T10:41:31.443Z,10.32
2023-01-07T10:42:31.469Z,10.32
2023-01-07T10:43:31.450Z,10.32
2023-01-07T10:44:31.420Z,10.30
2023-01-07T10:45:31.457Z,10.32
2023-01-07T10:46:31.391Z,10.30
2023-01-07T10:47:31.389Z,10.30
2023-01-07T10:48:31.394Z,10.26
2023-01-07T10:49:31.372Z,10.22
2023-01-07T10:50:31.367Z,10.21
2023-01-07T10:51:31.343Z,10.19
2023-01-07T10:52:31.338Z,10.18
2023-01-07T10:53:31.340Z,10.19
2023-01-07T10:54:31.309Z,10.18
2023-01-07T10:55:31.312Z,10.18
2023-01-07T10:56:31.294Z,10.21
2023-01-07T10:57:31.295Z,10.22
2023-01-07T10:58:31.268Z,10.22
2023-01-07T10:59:31.244Z,10.25
2023-01-07T11:00:31.256Z,10.28
2023-01-07T11:01:31.381Z,10.28
2023-01-07T11:02:31.403Z,10.30
2023-01-07T11:03:31.221Z,10.32
2023-01-07T11:04:31.226Z,10.33
2023-01-07T11:05:31.189Z,10.33
2023-01-07T11:06:31.169Z,10.36
2023-01-07T11:07:31.184Z,10.40
2023-01-07T11:08:31.144Z,10.42
2023-01-07T11:09:31.152Z,10.44
2023-01-07T11:10:31.151Z,10.46
2023-01-07T11:11:31.116Z,10.51
2023-01-07T11:12:31.099Z,10.52
2023-01-07T11:13:31.105Z,10.56
2023-01-07T11:14:31.099Z,10.58
2023-01-07T11:15:31.067Z,10.60
2023-01-07T11:16:31.169Z,10.65
2023-01-07T11:17:31.069Z,10.66
2023-01-07T11:18:31.075Z,10.68
2023-01-07T11:19:31.055Z,10.73
2023-01-07T11:20:31.026Z,10.74
2023-01-07T11:21:43.339Z,10.78
2023-01-07T11:22:31.064Z,10.78
2023-01-07T11:23:31.029Z,10.78
2023-01-07T11:24:31.032Z,10.83
2023-01-07T11:25:30.971Z,10.86
2023-01-07T11:26:30.968Z,10.89
2023-01-07T11:27:30.953Z,10.92
2023-01-07T11:28:30.935Z,10.88
2023-01-07T11:29:30.928Z,10.81
2023-01-07T11:30:30.932Z,10.84
2023-01-07T11:31:30.919Z,10.88
2023-01-07T11:32:30.920Z,10.91
2023-01-07T11:34:03.294Z,10.94
2023-01-07T11:34:30.896Z,10.94
2023-01-07T11:35:30.848Z,10.94
2023-01-07T11:36:30.847Z,10.94
2023-01-07T11:37:30.851Z,10.96
2023-01-07T11:38:30.824Z,10.98
2023-01-07T11:39:30.809Z,11.01
2023-01-07T11:40:30.818Z,11.01
2023-01-07T11:41:30.792Z,11.01
2023-01-07T11:42:30.775Z,10.98
2023-01-07T11:43:30.795Z,10.96
2023-01-07T11:44:30.776Z,10.96
2023-01-07T11:45:30.824Z,10.95
2023-01-07T11:46:30.790Z,10.92
2023-01-07T11:47:30.733Z,10.94
2023-01-07T11:48:30.713Z,10.92
2023-01-07T11:49:30.753Z,10.92
2023-01-07T11:50:30.689Z,10.92
2023-01-07T11:51:30.682Z,10.95
2023-01-07T11:52:30.666Z,10.94
2023-01-07T11:53:30.648Z,10.94
2023-01-07T11:54:30.688Z,10.92
2023-01-07T11:55:30.651Z,10.92
2023-01-07T11:56:30.619Z,10.94
2023-01-07T11:57:30.651Z,10.96
2023-01-07T11:58:31.219Z,10.99
2023-01-07T11:59:30.623Z,11.01
2023-01-07T12:00:30.590Z,11.02
2023-01-07T12:01:30.580Z,11.06
2023-01-07T12:02:30.572Z,11.03
2023-01-07T12:03:30.602Z,11.03
2023-01-07T12:04:30.537Z,11.07
2023-01-07T12:05:30.516Z,11.07
2023-01-07T12:06:30.520Z,11.07
2023-01-07T12:07:30.491Z,11.09
2023-01-07T12:08:30.480Z,11.10
2023-01-07T12:09:30.507Z,11.09
2023-01-07T12:10:30.472Z,11.09
2023-01-07T12:11:30.450Z,11.10
2023-01-07T12:12:30.466Z,11.10
2023-01-07T12:13:30.431Z,11.07
2023-01-07T12:14:30.428Z,11.07
2023-01-07T12:15:30.440Z,11.07
2023-01-07T12:16:30.449Z,11.06
2023-01-07T12:17:30.392Z,11.03
2023-01-07T12:18:30.376Z,11.01
2023-01-07T12:19:30.398Z,10.98
2023-01-07T12:20:30.348Z,10.96
2023-01-07T12:21:30.359Z,10.95
2023-01-07T12:22:30.325Z,10.95
2023-01-07T12:23:30.323Z,10.96
2023-01-07T12:24:30.328Z,10.94
2023-01-07T12:25:30.298Z,10.94
2023-01-07T12:26:30.316Z,10.91
2023-01-07T12:27:30.297Z,10.89
2023-01-07T12:28:30.267Z,10.89
2023-01-07T12:29:30.341Z,10.89
2023-01-07T12:30:30.244Z,10.86
2023-01-07T12:31:30.269Z,10.84
2023-01-07T12:32:30.238Z,10.83
2023-01-07T12:33:30.212Z,10.81
2023-01-07T12:34:30.227Z,10.81
2023-01-07T12:35:30.234Z,10.80
2023-01-07T12:36:30.174Z,10.80
2023-01-07T12:37:30.191Z,10.78
2023-01-07T12:38:30.151Z,10.78
2023-01-07T12:39:30.159Z,10.78
2023-01-07T12:40:30.134Z,10.77
2023-01-07T12:41:30.129Z,10.76
2023-01-07T12:42:30.124Z,10.77
2023-01-07T12:43:30.117Z,10.76
2023-01-07T12:44:30.103Z,10.77
2023-01-07T12:45:30.072Z,10.76
2023-01-07T12:46:30.152Z,10.76
2023-01-07T12:47:35.131Z,10.76
2023-01-07T12:48:30.050Z,10.74
2023-01-07T12:49:30.056Z,10.73
2023-01-07T12:50:30.058Z,10.73
2023-01-07T12:51:30.013Z,10.73
2023-01-07T12:52:29.991Z,10.71
2023-01-07T12:53:30.023Z,10.74
2023-01-07T12:54:30.002Z,10.73
2023-01-07T12:55:29.961Z,10.73
2023-01-07T12:56:29.946Z,10.73
2023-01-07T12:57:29.942Z,10.74
2023-01-07T12:58:29.927Z,10.74
2023-01-07T12:59:46.664Z,10.74
2023-01-07T13:00:36.465Z,10.73
2023-01-07T13:01:30.054Z,10.74
2023-01-07T13:02:29.881Z,10.76
2023-01-07T13:03:29.871Z,10.76
2023-01-07T13:04:29.920Z,10.76
2023-01-07T13:05:29.868Z,10.77
2023-01-07T13:06:29.832Z,10.78
2023-01-07T13:07:29.841Z,10.81
2023-01-07T13:08:29.813Z,10.80